Stanton, Michigan
Current Conditions -  °F | °C
As of 10:15 PM on Wednesday 22 Oct 2014 (Local Time) from KAMN Reporting Station
Overcast Overcast  
Wind Chill: 41°   Ceiling: 2100
Heat Index: 44°   Visibility: 10mi
Dew Point: 37°   Wind: 5mph
Humidity: 78%   Direction: 80°E
Pressure: 30.31"   Gusts: NA
Location:  43.29°N, 85.08°W
Report Text: KAMN 230215Z AUTO 08004KT 10SM OVC021 06/03 A3031 RMK AO2 T00640029
Loading
Personal Weather Stations






























Interactive Weather Map New forecast layout! Learn more

10-Day Weather Forecast

Advertisements
Track Severe Weather on mobile